Terminal Aerodrome Forecast
Issued by NWS

Home | Current Version | Previous Version | Text Only | Print | Product List | Glossary On
Versions: 1 2 3 4 5 6 7 8 9 10 11 12 13
390
FTUS46 KSEW 300520
TAFBLI
TAF
KBLI 300520Z 3006/3106 00000KT P6SM SKC
     FM301200 18005KT P6SM SKC
     FM301800 18010KT P6SM SKC=

USA.gov is the U.S. government's official web portal to all federal, state and local government web resources and services.